Time;durP1;ratioP1;P1;durP2;ratioP2;P2;SDS_P1;SDS_P2;PMS_P1;PMS_P2;Temp;Humidity;BMP_temperature;BMP_pressure;BME280_temperature;BME280_humidity;BME280_pressure;Samples;Min_cycle;Max_cycle;Signal;HPM_P1;HPM_P2
2022/01/02 00:00:17;;;;;;;9.47;4.60;;;;;;;12.61;95.95;101502.81;10422080;28;20056;-66
2022/01/02 00:05:40;;;;;;;6.63;4.15;;;;;;;12.66;95.48;101492.88;10392709;28;20509;-66
2022/01/02 00:11:03;;;;;;;7.68;4.22;;;;;;;12.50;97.04;101492.19;10380572;28;20528;-66
2022/01/02 00:16:27;;;;;;;8.88;4.28;;;;;;;12.57;96.08;101479.56;10432785;28;20401;-66
2022/01/02 00:21:49;;;;;;;9.75;4.47;;;;;;;12.63;95.43;101472.19;10385613;28;20076;-66
2022/01/02 00:27:13;;;;;;;8.38;4.30;;;;;;;12.65;96.23;101475.53;10378929;28;20243;-66
2022/01/02 00:32:37;;;;;;;7.75;4.13;;;;;;;12.56;96.62;101475.28;10378160;28;20073;-65
2022/01/02 00:37:59;;;;;;;11.77;4.30;;;;;;;12.55;97.53;101469.19;10358943;28;20053;-66
2022/01/02 00:43:45;;;;;;;11.00;4.75;;;;;;;12.50;98.16;101460.81;10350264;28;20060;-66
2022/01/02 00:49:09;;;;;;;7.57;4.82;;;;;;;12.38;99.98;101459.84;10356925;28;20046;-67
2022/01/02 00:54:32;;;;;;;10.52;5.20;;;;;;;12.24;100.00;101457.25;10375169;28;20056;-66
2022/01/02 01:00:04;;;;;;;12.38;5.68;;;;;;;12.18;100.00;101447.19;10396576;28;20064;-67
2022/01/02 01:05:32;;;;;;;9.43;5.50;;;;;;;12.00;100.00;101458.75;10392954;28;20071;-68
2022/01/02 01:10:54;;;;;;;12.52;5.65;;;;;;;11.95;100.00;101453.81;10400699;28;20053;-66
2022/01/02 01:16:18;;;;;;;13.05;6.05;;;;;;;11.92;100.00;101429.66;10393724;28;20560;-67
2022/01/02 01:21:40;;;;;;;13.45;5.60;;;;;;;11.88;100.00;101404.63;10437391;28;20068;-67
2022/01/02 01:27:07;;;;;;;12.93;5.45;;;;;;;11.93;100.00;101410.44;10410373;28;20054;-67
2022/01/02 01:32:29;;;;;;;8.20;5.57;;;;;;;11.89;100.00;101424.59;10426900;28;20041;-67
2022/01/02 01:37:51;;;;;;;13.50;6.00;;;;;;;11.81;100.00;101432.91;10437293;28;20056;-67
2022/01/02 01:43:14;;;;;;;8.25;5.70;;;;;;;11.77;100.00;101433.19;10396783;28;20056;-66
2022/01/02 01:48:35;;;;;;;10.40;6.03;;;;;;;11.84;100.00;101432.72;10431873;28;20049;-67
2022/01/02 01:53:57;;;;;;;12.75;5.82;;;;;;;11.81;100.00;101438.13;10393696;28;20076;-66
2022/01/02 01:59:22;;;;;;;19.38;6.45;;;;;;;11.69;100.00;101419.72;10401439;28;20061;-67
2022/01/02 02:04:44;;;;;;;12.95;5.93;;;;;;;11.80;100.00;101407.72;10413841;28;20060;-66
2022/01/02 02:15:30;;;;;;;8.10;5.90;;;;;;;11.76;100.00;101397.53;10376375;28;20045;-67
2022/01/02 02:20:51;;;;;;;9.43;5.90;;;;;;;11.76;100.00;101397.53;10436190;28;20053;-66
2022/01/02 02:26:13;;;;;;;10.25;5.43;;;;;;;11.78;100.00;101395.69;10364422;28;20049;-66
2022/01/02 02:31:34;;;;;;;12.40;5.75;;;;;;;11.76;100.00;101393.16;10399464;28;20045;-66
2022/01/02 02:36:56;;;;;;;9.20;6.03;;;;;;;11.73;100.00;101402.94;10382189;28;20072;-66
2022/01/02 02:42:39;;;;;;;10.15;5.95;;;;;;;11.65;100.00;101369.47;10411349;28;20046;-67
2022/01/02 02:54:01;;;;;;;10.60;5.93;;;;;;;11.54;100.00;101347.53;10363665;28;20049;-67
2022/01/02 02:59:29;;;;;;;14.13;6.00;;;;;;;11.48;100.00;101340.03;10360838;28;20080;-67
2022/01/02 03:04:51;;;;;;;12.25;6.22;;;;;;;11.57;100.00;101329.06;10373422;28;20049;-66
2022/01/02 03:10:16;;;;;;;10.25;5.88;;;;;;;11.59;100.00;101327.22;10367373;28;20056;-66
2022/01/02 03:15:37;;;;;;;13.90;6.20;;;;;;;11.63;100.00;101313.03;10400452;28;20500;-66
2022/01/02 03:20:59;;;;;;;13.15;6.07;;;;;;;11.62;100.00;101321.81;10383369;28;20065;-66
2022/01/02 03:26:21;;;;;;;14.30;6.20;;;;;;;11.59;100.00;101295.88;10425667;28;20049;-66
2022/01/02 03:31:43;;;;;;;12.02;5.82;;;;;;;11.55;100.00;101273.50;10393185;28;20526;-66
2022/01/02 03:37:04;;;;;;;14.55;5.88;;;;;;;11.54;100.00;101256.13;10399316;28;20547;-66
2022/01/02 03:42:26;;;;;;;9.48;6.32;;;;;;;11.56;100.00;101249.06;10379086;28;20053;-66
2022/01/02 03:47:48;;;;;;;12.60;5.88;;;;;;;11.57;100.00;101245.50;10346849;28;20054;-66
2022/01/02 03:53:10;;;;;;;11.68;6.13;;;;;;;11.56;100.00;101238.63;10375828;28;20049;-68
2022/01/02 03:58:31;;;;;;;13.88;6.13;;;;;;;11.52;100.00;101210.97;10364051;28;20057;-66
2022/01/02 04:03:53;;;;;;;8.52;5.43;;;;;;;11.53;100.00;101204.84;10358760;28;20060;-66
2022/01/02 04:09:14;;;;;;;12.07;5.85;;;;;;;11.46;100.00;101200.94;10380155;28;20054;-67
2022/01/02 04:14:36;;;;;;;11.60;6.00;;;;;;;11.50;100.00;101187.59;10357514;28;20050;-67
2022/01/02 04:19:58;;;;;;;9.88;6.20;;;;;;;11.60;100.00;101177.44;10357710;28;20065;-65
2022/01/02 04:25:20;;;;;;;13.95;6.20;;;;;;;11.59;100.00;101171.38;10394692;28;20053;-67
2022/01/02 04:30:42;;;;;;;14.27;5.63;;;;;;;11.59;100.00;101162.72;10357424;28;20525;-66
2022/01/02 04:36:04;;;;;;;19.10;5.85;;;;;;;11.57;100.00;101151.53;10370213;28;20057;-66
2022/01/02 04:41:26;;;;;;;17.05;6.03;;;;;;;11.44;100.00;101134.94;10446236;28;20049;-66
2022/01/02 04:46:47;;;;;;;13.25;5.78;;;;;;;11.54;100.00;101130.81;10396025;28;20041;-66
2022/01/02 04:52:09;;;;;;;16.00;5.35;;;;;;;11.58;100.00;101127.09;10356970;28;20057;-67
2022/01/02 04:57:31;;;;;;;11.10;5.20;;;;;;;11.59;100.00;101128.75;10370200;28;20046;-66
2022/01/02 05:02:52;;;;;;;12.45;5.97;;;;;;;11.61;100.00;101121.66;10394652;28;20060;-66
2022/01/02 05:08:14;;;;;;;14.23;5.53;;;;;;;11.65;100.00;101112.69;10397233;28;20123;-66
2022/01/02 05:13:36;;;;;;;13.07;5.40;;;;;;;11.64;100.00;101095.38;10355765;28;20053;-67
2022/01/02 05:18:59;;;;;;;16.08;5.43;;;;;;;11.66;100.00;101083.88;10364552;28;20564;-66
2022/01/02 05:24:20;;;;;;;16.27;5.63;;;;;;;11.71;100.00;101096.63;10413041;28;20052;-66
2022/01/02 05:29:42;;;;;;;15.20;4.68;;;;;;;11.78;100.00;101093.53;10391479;28;20053;-66
2022/01/02 05:35:04;;;;;;;15.70;4.70;;;;;;;11.77;100.00;101096.25;10355790;28;20049;-65
2022/01/02 05:40:34;;;;;;;15.70;5.15;;;;;;;11.79;100.00;101083.91;10364771;28;20049;-66
2022/01/02 05:45:55;;;;;;;11.82;4.88;;;;;;;11.85;100.00;101078.28;10397140;28;20053;-65
2022/01/02 05:51:17;;;;;;;11.50;4.97;;;;;;;11.86;100.00;101069.50;10369273;28;20081;-66
2022/01/02 05:56:39;;;;;;;18.98;5.07;;;;;;;11.86;100.00;101070.34;10355273;28;20387;-65
2022/01/02 06:02:00;;;;;;;15.98;4.80;;;;;;;11.91;100.00;101059.59;10355381;28;20060;-66
2022/01/02 06:07:22;;;;;;;12.73;4.78;;;;;;;11.93;100.00;101060.34;10354427;28;20410;-64
2022/01/02 06:12:44;;;;;;;12.75;4.90;;;;;;;11.94;100.00;101059.38;10355007;28;20061;-65
2022/01/02 06:18:05;;;;;;;13.60;4.45;;;;;;;11.96;100.00;101047.91;10360513;28;20050;-65
2022/01/02 06:23:27;;;;;;;14.48;4.40;;;;;;;12.00;100.00;101045.91;10399422;28;20053;-65
2022/01/02 06:28:49;;;;;;;10.55;4.05;;;;;;;11.99;100.00;101041.63;10429674;28;20510;-66
2022/01/02 06:34:10;;;;;;;12.32;3.80;;;;;;;12.02;100.00;101038.81;10403067;28;20042;-65
2022/01/02 06:39:32;;;;;;;12.57;4.32;;;;;;;12.02;100.00;101028.38;10371778;28;20050;-65
2022/01/02 06:44:58;;;;;;;11.63;4.05;;;;;;;12.08;100.00;101017.53;10395414;28;20115;-66
2022/01/02 06:50:19;;;;;;;11.27;3.75;;;;;;;12.04;100.00;101005.59;10375945;28;20502;-65
2022/01/02 06:55:41;;;;;;;10.30;3.42;;;;;;;12.10;100.00;101010.38;10361349;28;20075;-65
2022/01/02 07:01:03;;;;;;;15.20;3.20;;;;;;;12.18;100.00;100987.19;10361522;28;20057;-65
2022/01/02 07:06:25;;;;;;;13.55;3.30;;;;;;;12.23;100.00;100992.91;10360784;28;20050;-66
2022/01/02 07:11:46;;;;;;;8.57;3.28;;;;;;;12.31;100.00;100977.56;10361152;28;20061;-65
2022/01/02 07:17:08;;;;;;;9.43;2.78;;;;;;;12.39;100.00;100949.94;10366574;28;20149;-66
2022/01/02 07:22:30;;;;;;;8.95;2.83;;;;;;;12.41;100.00;100947.22;10375293;28;20058;-66
2022/01/02 07:27:51;;;;;;;10.65;3.10;;;;;;;12.41;100.00;100921.06;10441406;28;20049;-66
2022/01/02 07:33:13;;;;;;;9.13;2.60;;;;;;;12.52;100.00;100908.91;10416879;28;20414;-66
2022/01/02 07:38:34;;;;;;;8.05;2.55;;;;;;;12.47;100.00;100923.28;10415023;28;20550;-65
2022/01/02 07:44:03;;;;;;;8.43;2.83;;;;;;;12.49;100.00;100893.44;10395784;28;20046;-67
2022/01/02 07:49:25;;;;;;;7.65;2.83;;;;;;;12.48;100.00;100902.22;10359280;28;20442;-66
2022/01/02 07:54:47;;;;;;;9.93;3.20;;;;;;;12.43;100.00;100888.66;10358800;28;20580;-66
2022/01/02 08:00:10;;;;;;;9.68;3.35;;;;;;;12.45;100.00;100872.84;10359075;28;20054;-66
2022/01/02 08:05:32;;;;;;;10.10;3.53;;;;;;;12.38;100.00;100858.53;10358229;28;20656;-66
2022/01/02 08:10:53;;;;;;;8.75;3.17;;;;;;;12.43;100.00;100840.75;10359047;28;20128;-65
2022/01/02 08:16:15;;;;;;;10.27;3.20;;;;;;;12.41;100.00;100850.47;10357820;28;20050;-66
2022/01/02 08:21:37;;;;;;;11.73;3.35;;;;;;;12.43;100.00;100841.59;10358401;28;20498;-66
2022/01/02 08:26:59;;;;;;;10.93;2.85;;;;;;;12.40;100.00;100820.06;10403275;28;20521;-66
2022/01/02 08:32:20;;;;;;;14.15;3.30;;;;;;;12.50;100.00;100811.44;10359773;28;20409;-67
2022/01/02 08:37:46;;;;;;;11.32;3.40;;;;;;;12.51;100.00;100803.50;10385213;28;20129;-66
2022/01/02 08:43:08;;;;;;;10.40;3.30;;;;;;;12.60;100.00;100797.59;10393271;28;20072;-66
2022/01/02 08:48:30;;;;;;;5.63;2.72;;;;;;;12.61;100.00;100788.81;10366851;28;20053;-66
2022/01/02 08:53:52;;;;;;;7.95;3.15;;;;;;;12.53;100.00;100775.44;10379519;28;20505;-66
2022/01/02 08:59:13;;;;;;;8.20;2.90;;;;;;;12.67;100.00;100777.06;10397143;28;20140;-66
2022/01/02 09:04:35;;;;;;;9.25;3.00;;;;;;;12.62;100.00;100774.78;10379696;28;20060;-66
2022/01/02 09:10:18;;;;;;;8.25;2.90;;;;;;;12.59;100.00;100774.16;10388766;28;20057;-66
2022/01/02 09:15:40;;;;;;;8.82;2.92;;;;;;;12.53;100.00;100770.22;10356942;28;20053;-67
2022/01/02 09:21:02;;;;;;;5.85;2.95;;;;;;;12.48;100.00;100775.91;10391513;28;20054;-67
2022/01/02 09:26:23;;;;;;;7.20;2.95;;;;;;;12.55;100.00;100772.72;10386326;28;20051;-66
2022/01/02 09:31:45;;;;;;;6.25;2.92;;;;;;;12.43;100.00;100750.09;10374998;28;20060;-65
2022/01/02 09:37:07;;;;;;;8.77;3.15;;;;;;;12.37;100.00;100770.63;10376225;28;21751;-65
2022/01/02 09:42:29;;;;;;;7.32;2.70;;;;;;;12.45;100.00;100755.22;10404496;28;20390;-64
2022/01/02 09:47:52;;;;;;;10.65;3.08;;;;;;;12.43;100.00;100772.78;10372462;28;20053;-64
2022/01/02 09:53:13;;;;;;;15.57;3.50;;;;;;;12.39;100.00;100739.97;10362866;28;20054;-65
2022/01/02 09:58:35;;;;;;;8.43;3.17;;;;;;;12.38;100.00;100727.81;10419939;28;20053;-65
2022/01/02 10:03:57;;;;;;;8.70;2.85;;;;;;;12.38;100.00;100730.44;10425476;28;20088;-65
2022/01/02 10:09:33;;;;;;;8.45;3.13;;;;;;;12.41;100.00;100738.06;10404644;28;20057;-65
2022/01/02 10:15:11;;;;;;;11.63;3.55;;;;;;;12.41;100.00;100719.78;10363393;28;20053;-65
2022/01/02 10:20:40;;;;;;;9.98;3.03;;;;;;;12.43;100.00;100715.25;10363132;28;20481;-66
2022/01/02 10:26:04;;;;;;;12.10;2.92;;;;;;;12.37;100.00;100715.72;10437964;28;20131;-65
2022/01/02 10:31:26;;;;;;;9.07;3.20;;;;;;;12.41;100.00;100698.84;10396396;28;20049;-65
2022/01/02 10:36:48;;;;;;;8.68;3.20;;;;;;;12.41;100.00;100702.31;10437327;28;20052;-65
2022/01/02 10:42:16;;;;;;;11.10;3.38;;;;;;;12.47;100.00;100685.34;10378222;28;20060;-66
2022/01/02 10:47:43;;;;;;;8.77;3.30;;;;;;;12.51;100.00;100671.91;10383099;28;20186;-65
2022/01/02 10:53:25;;;;;;;7.50;2.95;;;;;;;12.55;100.00;100652.44;10361102;28;20061;-65
2022/01/02 10:58:48;;;;;;;9.15;3.25;;;;;;;12.65;100.00;100654.25;10385327;28;20068;-64
2022/01/02 11:04:09;;;;;;;8.05;3.65;;;;;;;12.71;100.00;100637.25;10371291;28;20060;-65
2022/01/02 11:09:32;;;;;;;8.73;3.70;;;;;;;12.82;100.00;100624.19;10414488;28;20057;-65
2022/01/02 11:14:55;;;;;;;9.40;3.20;;;;;;;12.89;100.00;100600.09;10395088;28;20157;-65
2022/01/02 11:20:25;;;;;;;7.30;3.22;;;;;;;13.07;100.00;100613.50;10399689;28;20049;-65
2022/01/02 11:26:02;;;;;;;9.98;3.30;;;;;;;12.96;100.00;100596.03;10429139;28;20089;-65
2022/01/02 11:31:29;;;;;;;9.40;3.30;;;;;;;12.90;100.00;100580.81;10360059;28;20404;-65
2022/01/02 11:36:53;;;;;;;8.88;3.35;;;;;;;12.93;100.00;100588.44;10386661;28;20405;-66
2022/01/02 11:42:42;;;;;;;8.10;3.75;;;;;;;12.90;99.63;100578.19;10411383;28;20042;-65
2022/01/02 11:48:27;;;;;;;7.57;3.30;;;;;;;12.93;98.37;100593.66;10379006;28;20037;-65
2022/01/02 11:53:52;;;;;;;6.00;2.67;;;;;;;12.89;97.79;100581.78;10368527;28;20057;-65
2022/01/02 11:59:13;;;;;;;8.25;2.80;;;;;;;12.90;97.18;100586.06;10370348;28;20052;-65
2022/01/02 12:10:30;;;;;;;7.07;2.95;;;;;;;13.04;94.11;100598.91;10359944;28;20045;-64
2022/01/02 12:16:01;;;;;;;7.68;3.25;;;;;;;13.02;94.22;100585.09;10358727;28;20077;-65
2022/01/02 12:21:23;;;;;;;8.30;2.55;;;;;;;13.06;92.82;100578.66;10361321;28;20100;-65
2022/01/02 12:26:46;;;;;;;7.05;2.65;;;;;;;13.05;91.93;100582.25;10370408;28;20414;-64
2022/01/02 12:32:08;;;;;;;8.23;3.20;;;;;;;13.05;91.81;100570.91;10366401;28;20132;-65
2022/01/02 12:37:29;;;;;;;8.70;2.92;;;;;;;12.97;92.83;100574.13;10368303;28;20061;-66
2022/01/02 12:42:52;;;;;;;8.27;3.10;;;;;;;12.90;93.32;100559.03;10365734;28;20049;-65
2022/01/02 12:48:29;;;;;;;7.65;2.72;;;;;;;12.89;93.33;100562.56;10361024;28;20064;-65
2022/01/02 12:54:05;;;;;;;6.65;2.72;;;;;;;12.89;92.60;100553.00;10377580;28;20054;-66
2022/01/02 12:59:28;;;;;;;8.90;2.92;;;;;;;12.81;94.34;100538.81;10361120;28;20054;-65
2022/01/02 13:04:52;;;;;;;7.20;2.67;;;;;;;12.88;92.95;100537.41;10360822;28;20218;-65
2022/01/02 13:10:15;;;;;;;10.93;2.80;;;;;;;12.79;94.15;100531.09;10383493;28;20128;-66
2022/01/02 13:15:37;;;;;;;10.15;3.05;;;;;;;12.82;92.88;100546.53;10384220;28;20430;-64
2022/01/02 13:21:00;;;;;;;8.90;3.10;;;;;;;12.83;93.02;100539.53;10356200;28;20100;-65
2022/01/02 13:26:22;;;;;;;8.90;2.60;;;;;;;12.69;95.32;100539.78;10378880;28;20041;-65
2022/01/02 13:31:43;;;;;;;6.65;2.63;;;;;;;12.70;94.28;100544.88;10396378;28;20540;-64
2022/01/02 13:37:05;;;;;;;12.63;2.90;;;;;;;12.70;94.30;100546.66;10396067;28;20049;-65
2022/01/02 13:42:39;;;;;;;8.68;2.78;;;;;;;12.67;95.07;100547.72;10426088;28;20053;-66
2022/01/02 13:48:09;;;;;;;6.60;2.53;;;;;;;12.67;94.67;100558.19;10366262;28;20090;-65
2022/01/02 13:53:35;;;;;;;8.70;2.60;;;;;;;12.66;94.62;100582.66;10369206;28;20053;-64
2022/01/02 13:58:58;;;;;;;9.90;2.50;;;;;;;12.66;94.52;100587.91;10396629;28;20494;-63
2022/01/02 14:04:20;;;;;;;4.50;2.30;;;;;;;12.68;93.48;100580.78;10386190;28;20049;-64
2022/01/02 14:09:49;;;;;;;6.82;2.10;;;;;;;12.66;92.56;100587.91;10402449;28;20054;-64
2022/01/02 14:15:22;;;;;;;8.32;2.00;;;;;;;12.70;90.73;100593.75;10354256;28;20487;-64
2022/01/02 14:20:49;;;;;;;6.75;1.55;;;;;;;12.71;87.63;100611.94;10356299;28;20054;-64
2022/01/02 14:26:10;;;;;;;6.68;1.40;;;;;;;12.63;86.99;100624.78;10417978;28;20040;-64
2022/01/02 14:31:32;;;;;;;7.25;1.70;;;;;;;12.61;86.18;100604.88;10402098;28;20049;-64
2022/01/02 14:36:53;;;;;;;8.07;1.40;;;;;;;12.57;85.99;100619.19;10424882;28;20049;-64
2022/01/02 14:42:15;;;;;;;5.97;1.67;;;;;;;12.48;86.28;100641.63;10400884;28;20048;-64
2022/01/02 14:47:40;;;;;;;13.45;2.03;;;;;;;12.51;85.46;100654.47;10393070;28;20052;-64
2022/01/02 14:53:02;;;;;;;6.38;1.98;;;;;;;12.42;85.39;100645.63;10364185;28;20059;-64
2022/01/02 14:58:24;;;;;;;8.45;1.65;;;;;;;12.40;84.62;100660.59;10378640;28;20444;-63
2022/01/02 15:03:47;;;;;;;6.55;1.30;;;;;;;12.34;83.93;100674.13;10374108;28;20064;-64
2022/01/02 15:09:09;;;;;;;8.85;1.70;;;;;;;12.26;85.04;100666.84;10377225;28;20064;-64
2022/01/02 15:14:31;;;;;;;5.85;1.50;;;;;;;12.15;86.82;100679.03;10372131;28;20522;-63
2022/01/02 15:19:54;;;;;;;5.60;1.30;;;;;;;12.10;87.38;100678.53;10371735;28;20188;-65
2022/01/02 15:25:15;;;;;;;4.60;1.20;;;;;;;12.07;84.77;100676.16;10375566;28;20529;-65
2022/01/02 15:30:37;;;;;;;10.77;1.30;;;;;;;11.99;84.83;100678.47;10372159;28;20064;-63
2022/01/02 15:35:58;;;;;;;8.73;1.20;;;;;;;11.96;85.23;100694.38;10374729;28;20392;-63
2022/01/02 15:41:20;;;;;;;9.35;1.23;;;;;;;11.97;85.91;100704.72;10370194;28;20058;-65
2022/01/02 15:46:43;;;;;;;9.60;1.45;;;;;;;11.94;86.53;100714.53;10362280;28;20066;-64
2022/01/02 15:52:05;;;;;;;7.80;1.70;;;;;;;11.86;87.50;100719.50;10366467;28;20123;-64
2022/01/02 15:57:26;;;;;;;6.43;1.45;;;;;;;11.90;88.12;100731.41;10382337;28;20050;-64
2022/01/02 16:02:52;;;;;;;8.68;1.38;;;;;;;11.88;87.41;100728.06;10365265;28;20049;-63
2022/01/02 16:08:14;;;;;;;8.77;1.60;;;;;;;11.88;85.78;100738.50;10358512;28;20100;-63
2022/01/02 16:13:35;;;;;;;7.57;1.55;;;;;;;11.85;85.08;100747.41;10366037;28;20137;-63
2022/01/02 16:18:57;;;;;;;7.55;1.20;;;;;;;11.81;87.18;100742.47;10372075;28;20046;-63
2022/01/02 16:24:33;;;;;;;6.85;1.42;;;;;;;11.67;88.46;100753.06;10369740;28;20050;-62
2022/01/02 16:29:55;;;;;;;7.60;1.35;;;;;;;11.63;88.39;100743.81;10361236;28;20062;-63
2022/01/02 16:35:19;;;;;;;3.70;1.25;;;;;;;11.58;88.60;100740.69;10364886;28;20372;-64
2022/01/02 16:40:44;;;;;;;4.97;1.15;;;;;;;11.58;87.68;100741.50;10373518;28;20045;-64
2022/01/02 16:46:05;;;;;;;4.63;1.00;;;;;;;11.60;87.98;100744.00;10360819;28;20038;-64
2022/01/02 16:51:27;;;;;;;7.82;1.00;;;;;;;11.48;88.89;100729.19;10361166;28;20049;-63
2022/01/02 16:56:48;;;;;;;4.25;1.10;;;;;;;11.52;89.96;100731.47;10359154;28;20046;-64
2022/01/02 17:02:10;;;;;;;7.32;1.70;;;;;;;11.46;89.94;100738.88;10362555;28;20076;-63
2022/01/02 17:07:32;;;;;;;5.05;1.30;;;;;;;11.46;90.30;100736.28;10363497;28;20174;-63
2022/01/02 17:12:56;;;;;;;11.43;1.80;;;;;;;11.46;90.01;100743.25;10373241;28;20078;-63
2022/01/02 17:18:18;;;;;;;10.60;1.77;;;;;;;11.48;91.34;100737.00;10373839;28;20046;-63
2022/01/02 17:23:41;;;;;;;15.63;1.98;;;;;;;11.39;92.12;100740.25;10365466;28;20060;-63
2022/01/02 17:29:02;;;;;;;11.35;2.00;;;;;;;11.51;91.19;100736.78;10356538;28;20517;-64
2022/01/02 17:34:24;;;;;;;12.07;2.22;;;;;;;11.53;91.85;100737.53;10360093;28;20072;-63
2022/01/02 17:39:46;;;;;;;8.30;2.30;;;;;;;11.53;91.71;100742.75;10371172;28;20630;-65
2022/01/02 17:45:09;;;;;;;9.75;1.83;;;;;;;11.49;91.76;100747.34;10359156;28;20041;-64
2022/01/02 17:50:31;;;;;;;7.70;1.80;;;;;;;11.52;91.21;100741.06;10366360;28;20056;-63
2022/01/02 17:55:52;;;;;;;9.60;2.30;;;;;;;11.45;91.39;100739.81;10361553;28;20181;-66
2022/01/02 18:01:18;;;;;;;10.07;1.80;;;;;;;11.42;90.99;100745.25;10354073;28;20434;-63
2022/01/02 18:06:40;;;;;;;7.63;2.05;;;;;;;11.37;92.04;100741.31;10361070;28;20061;-62
2022/01/02 18:12:02;;;;;;;8.80;1.55;;;;;;;11.32;91.59;100731.19;10393709;28;20057;-63
2022/01/02 18:17:24;;;;;;;5.65;1.63;;;;;;;11.33;91.90;100714.59;10402026;28;20053;-63
2022/01/02 18:22:46;;;;;;;7.80;1.80;;;;;;;11.24;91.85;100720.41;10384197;28;20052;-64
2022/01/02 18:28:09;;;;;;;8.57;1.63;;;;;;;11.29;91.79;100697.47;10400363;28;20056;-62
2022/01/02 18:33:31;;;;;;;6.50;1.60;;;;;;;11.24;91.65;100704.75;10394261;28;20045;-62
2022/01/02 18:38:53;;;;;;;8.85;1.55;;;;;;;11.26;91.20;100702.88;10392570;28;20052;-62
2022/01/02 18:44:15;;;;;;;8.98;1.70;;;;;;;11.21;91.90;100704.97;10412461;28;20402;-63
2022/01/02 18:49:37;;;;;;;12.48;1.70;;;;;;;11.17;92.29;100703.53;10399427;28;20092;-62
2022/01/02 18:54:58;;;;;;;13.73;1.80;;;;;;;11.15;92.23;100694.97;10382141;28;20099;-63
2022/01/02 19:00:20;;;;;;;6.93;1.27;;;;;;;11.02;92.84;100678.50;10380925;28;20041;-62
2022/01/02 19:05:42;;;;;;;6.30;1.38;;;;;;;11.04;92.49;100663.59;10366506;28;20053;-62
2022/01/02 19:11:04;;;;;;;9.63;1.25;;;;;;;11.07;92.03;100652.09;10366507;28;20054;-62
2022/01/02 19:16:25;;;;;;;10.65;1.67;;;;;;;10.97;92.66;100638.84;10366916;28;20403;-62
2022/01/02 19:21:47;;;;;;;9.48;1.83;;;;;;;11.00;92.65;100623.00;10362296;28;20058;-65
2022/01/02 19:27:09;;;;;;;7.18;2.00;;;;;;;10.89;93.56;100612.47;10365394;28;20048;-62
2022/01/02 19:32:30;;;;;;;8.52;2.13;;;;;;;10.95;93.52;100606.81;10382960;28;20048;-64
2022/01/02 19:37:52;;;;;;;9.05;2.10;;;;;;;10.73;95.03;100601.44;10363193;28;20041;-65
2022/01/02 19:43:13;;;;;;;8.40;2.10;;;;;;;10.81;93.47;100606.94;10384968;28;20052;-63
2022/01/02 19:48:35;;;;;;;9.85;2.15;;;;;;;10.80;93.73;100600.06;10384993;28;20057;-62
2022/01/02 19:53:56;;;;;;;9.30;1.75;;;;;;;10.73;94.72;100609.25;10372110;28;20054;-63
2022/01/02 19:59:18;;;;;;;8.65;1.92;;;;;;;10.76;95.14;100588.19;10388770;28;20050;-63
2022/01/02 20:04:40;;;;;;;12.43;2.15;;;;;;;10.88;94.20;100587.34;10395719;28;20049;-63
2022/01/02 20:10:07;;;;;;;12.18;2.25;;;;;;;10.80;94.96;100573.97;10362432;28;20042;-62
2022/01/02 20:15:29;;;;;;;8.02;1.85;;;;;;;10.76;94.95;100582.13;10428886;28;20057;-63
2022/01/02 20:20:51;;;;;;;10.18;2.20;;;;;;;10.95;94.40;100578.13;10403094;28;20137;-63
2022/01/02 20:26:13;;;;;;;9.38;2.17;;;;;;;11.00;94.31;100567.38;10407641;28;20049;-62
2022/01/02 20:31:35;;;;;;;8.85;1.92;;;;;;;10.91;94.60;100568.88;10357231;28;20494;-63
2022/01/02 20:36:57;;;;;;;10.60;2.15;;;;;;;10.80;95.42;100553.13;10385453;28;20451;-63
2022/01/02 20:42:19;;;;;;;14.23;2.22;;;;;;;10.91;95.63;100541.94;10428268;28;20073;-63
2022/01/02 20:47:41;;;;;;;8.57;1.92;;;;;;;10.76;96.57;100504.75;10397673;28;20045;-62
2022/01/02 20:53:04;;;;;;;8.85;1.92;;;;;;;10.85;95.31;100498.03;10370039;28;20458;-63
2022/01/02 20:58:26;;;;;;;12.77;2.20;;;;;;;10.78;96.26;100502.03;10400043;28;20475;-63
2022/01/02 21:03:49;;;;;;;11.48;2.80;;;;;;;10.67;96.66;100518.44;10357560;28;20496;-62
2022/01/02 21:09:10;;;;;;;8.63;2.17;;;;;;;10.69;96.57;100508.72;10356484;28;20046;-65
2022/01/02 21:14:32;;;;;;;12.85;2.13;;;;;;;10.68;96.67;100496.63;10357049;28;20049;-63
2022/01/02 21:19:54;;;;;;;13.30;2.22;;;;;;;10.80;97.10;100490.56;10356667;28;20053;-63
2022/01/02 21:25:16;;;;;;;10.38;2.63;;;;;;;10.81;96.83;100471.34;10399339;28;20136;-63
2022/01/02 21:30:39;;;;;;;15.88;2.45;;;;;;;10.93;96.22;100472.28;10388506;28;20457;-63
2022/01/02 21:36:00;;;;;;;10.57;2.20;;;;;;;10.98;95.66;100462.34;10402981;28;20045;-62
2022/01/02 21:41:22;;;;;;;15.07;2.42;;;;;;;11.01;96.30;100462.94;10405989;28;20728;-64
2022/01/02 21:46:44;;;;;;;12.13;2.53;;;;;;;10.92;98.53;100442.72;10378652;28;20362;-64
2022/01/02 21:52:06;;;;;;;14.27;2.03;;;;;;;10.78;100.00;100440.28;10391760;28;20181;-63
2022/01/02 21:57:29;;;;;;;16.85;2.80;;;;;;;10.76;100.00;100423.94;10416690;28;20051;-63
2022/01/02 22:02:51;;;;;;;12.52;2.88;;;;;;;10.79;100.00;100431.53;10371925;28;20150;-64
2022/01/02 22:08:13;;;;;;;12.63;2.20;;;;;;;10.76;100.00;100417.88;10391384;28;20111;-62
2022/01/02 22:13:34;;;;;;;12.63;2.63;;;;;;;10.79;100.00;100405.44;10402058;28;20064;-62
2022/01/02 22:18:56;;;;;;;17.27;3.20;;;;;;;10.81;100.00;100403.56;10373140;28;20053;-62
2022/01/02 22:24:21;;;;;;;8.77;2.30;;;;;;;10.70;100.00;100382.66;10416398;28;20079;-62
2022/01/02 22:29:44;;;;;;;8.80;1.90;;;;;;;10.63;100.00;100386.63;10422258;28;20041;-63
2022/01/02 22:35:06;;;;;;;5.65;1.60;;;;;;;10.50;100.00;100392.00;10399343;28;20609;-62
2022/01/02 22:40:28;;;;;;;8.90;1.73;;;;;;;10.43;100.00;100386.41;10374074;28;20049;-62
2022/01/02 22:45:51;;;;;;;5.40;1.08;;;;;;;10.31;100.00;100382.06;10365145;28;20635;-62
2022/01/02 22:51:12;;;;;;;6.38;1.05;;;;;;;10.22;100.00;100368.84;10367982;28;20053;-62
2022/01/02 22:56:36;;;;;;;9.15;1.13;;;;;;;10.15;100.00;100371.03;10363515;28;20395;-62
2022/01/02 23:01:58;;;;;;;4.13;0.90;;;;;;;10.02;100.00;100359.00;10358263;28;20049;-63
2022/01/02 23:07:21;;;;;;;7.13;1.48;;;;;;;9.95;100.00;100337.75;10370494;28;20037;-62
2022/01/02 23:12:43;;;;;;;13.43;1.70;;;;;;;10.08;100.00;100319.50;10411342;28;20078;-63
2022/01/02 23:18:06;;;;;;;7.78;1.65;;;;;;;10.00;100.00;100308.81;10396227;28;20065;-62
2022/01/02 23:23:27;;;;;;;7.95;1.40;;;;;;;9.95;100.00;100305.66;10391123;28;20049;-62
2022/01/02 23:28:52;;;;;;;7.60;1.58;;;;;;;10.03;100.00;100298.19;10412060;28;20058;-63
2022/01/02 23:34:13;;;;;;;7.93;1.90;;;;;;;9.92;100.00;100296.28;10366468;28;20049;-62
2022/01/02 23:39:35;;;;;;;6.28;1.88;;;;;;;10.03;100.00;100316.41;10363706;28;20046;-62
2022/01/02 23:44:58;;;;;;;5.50;1.50;;;;;;;10.00;100.00;100327.03;10388993;28;20057;-62
2022/01/02 23:50:22;;;;;;;1.90;0.47;;;;;;;9.92;100.00;100331.91;10380475;28;20100;-63
2022/01/02 23:55:48;;;;;;;1.52;0.50;;;;;;;9.67;100.00;100316.31;10386392;28;20053;-63
